Cheyenne — WDE9553 — position and weather

sailwx.info

Track history (hours):
 
Tides and Currents Weather Stations Pressure Air Temp Water Temp Dewpoint Dewpoint Depression Visibility Wind Speed Wind Dir Waves Ship Positions

Cheyenne

Owner: DMC MARINE, LLC, HILLSIDE, NJ. More information available from US FCC via Universal Licensing System and Coast Guard Vessel Documentation Center.

Last reported at 2014-Sep-29 16:33 UTC. Time now 2014-Oct-01 04:00 UTC.
Position N 40°56' W 073°55'.

Length 29 m; draft 4 m.

Type: Towing. MMSI: 367418570.

Date/timePositionNaut miles runAvg speedWind from/ knotsBaromVisibWave heightAir tempDewpointWater temp
2014-Sep-29 16:33N 40°56' W 073°55'8 7.9
2014-Sep-29 15:33N 40°49' W 073°58'7 7.4
2014-Sep-29 14:33N 40°42' W 074°02'2 2.3
2014-Sep-29 13:33N 40°41' W 074°05'0 0.0
2014-Sep-29 12:33N 40°41' W 074°05'0 0.0
2014-Sep-29 11:33N 40°41' W 074°05'0 0.0
2014-Sep-29 10:31N 40°41' W 074°05'0 0.0
2014-Sep-29 09:13N 40°41' W 074°05'0 0.0
2014-Sep-29 08:33N 40°41' W 074°05'0 0.0
2014-Sep-29 07:33N 40°41' W 074°05'0 0.0
2014-Sep-29 06:33N 40°41' W 074°05'0 0.0
2014-Sep-29 05:33N 40°41' W 074°05'0 0.0
2014-Sep-29 04:33N 40°41' W 074°05'0 0.0
2014-Sep-29 03:33N 40°41' W 074°05'0 0.0
2014-Sep-29 02:30N 40°41' W 074°05'0 0.0
2014-Sep-29 01:33N 40°41' W 074°05'0 0.0
2014-Sep-29 00:33N 40°41' W 074°05'1 1.3
2014-Sep-28 23:32N 40°41' W 074°03'0 0.0
2014-Sep-28 22:31N 40°41' W 074°03'4 4.6
2014-Sep-28 21:32N 40°39' W 074°08'2 1.9
2014-Sep-28 20:31N 40°41' W 074°08'10 2.6
2014-Sep-28 16:33N 40°30' W 074°10'5 5.5
2014-Sep-28 15:32N 40°32' W 074°03'5 4.6
2014-Sep-28 14:33N 40°36' W 074°03'4 4.3
2014-Sep-28 13:33N 40°41' W 074°03'1 1.0
2014-Sep-28 12:33N 40°41' W 074°04'0 0.4
2014-Sep-28 11:33N 40°41' W 074°05'0 0.0
2014-Sep-28 10:33N 40°41' W 074°05'0 0.0
2014-Sep-28 09:33N 40°41' W 074°05'0 0.0
2014-Sep-28 08:33N 40°41' W 074°05'0 0.0
2014-Sep-28 07:33N 40°41' W 074°05'0 0.0
2014-Sep-28 06:33N 40°41' W 074°05'0 0.0
2014-Sep-28 05:33N 40°41' W 074°05'0 0.0
2014-Sep-28 04:33N 40°41' W 074°05'0 0.0
2014-Sep-28 03:33N 40°41' W 074°05'0 0.0
2014-Sep-28 02:33N 40°41' W 074°05'0 0.0
2014-Sep-28 01:32N 40°41' W 074°05'1 1.2
2014-Sep-28 00:33N 40°40' W 074°04'4 3.9
2014-Sep-27 23:30N 40°39' W 074°09'2 1.6
2014-Sep-27 22:30N 40°41' W 074°08'3 2.8
2014-Sep-27 21:31N 40°39' W 074°05'7 1.4
2014-Sep-27 16:33N 40°43' W 073°58'5 2.3
2014-Sep-27 14:19N 40°41' W 074°04'0 0.0
2014-Sep-27 07:31N 40°41' W 074°05'0 0.0
2014-Sep-27 06:19N 40°41' W 074°05'0 0.0
2014-Sep-27 04:27N 40°41' W 074°05'0 0.0
2014-Sep-27 03:33N 40°41' W 074°05'0 0.0
2014-Sep-27 00:24N 40°41' W 074°05'0 0.0
2014-Sep-26 23:33N 40°41' W 074°05'1 0.9
2014-Sep-26 22:33N 40°41' W 074°04'5 5.0
2014-Sep-26 21:31N 40°44' W 073°58'1 1.0
2014-Sep-26 20:17N 40°44' W 073°57'2 2.2
2014-Sep-26 19:33N 40°43' W 073°58'3 3.0
2014-Sep-26 18:33N 40°41' W 074°02'2 2.4
2014-Sep-26 17:33N 40°41' W 074°05'0 0.0
2014-Sep-26 16:32N 40°41' W 074°05'0 0.0
2014-Sep-26 15:27N 40°41' W 074°05'0 0.0
2014-Sep-26 14:29N 40°41' W 074°05'0 0.0
2014-Sep-26 13:33N 40°41' W 074°05'0 0.0
2014-Sep-25 15:28N 40°41' W 074°05'0 0.0
2014-Sep-25 12:24N 40°41' W 074°05'0 0.0
2014-Sep-25 11:33N 40°41' W 074°05'0 0.0
2014-Sep-25 10:33N 40°41' W 074°05'0 0.0
2014-Sep-25 08:31N 40°41' W 074°05'0 0.0
2014-Sep-25 07:27N 40°41' W 074°05'0 0.0
2014-Sep-24 18:33N 40°41' W 074°05'0 0.0
2014-Sep-24 17:32N 40°41' W 074°05'0 0.0
2014-Sep-24 15:28N 40°41' W 074°05'0 0.0
2014-Sep-24 13:33N 40°41' W 074°05'0 0.0
2014-Sep-24 12:33N 40°41' W 074°05'0 0.0
2014-Sep-24 11:33N 40°41' W 074°05'0 0.0
2014-Sep-24 10:34N 40°41' W 074°05'0 0.0
2014-Sep-24 09:30N 40°41' W 074°05'0 0.0
2014-Sep-24 08:32N 40°41' W 074°05'1 1.5
2014-Sep-24 07:34N 40°41' W 074°03'6 5.3
2014-Sep-24 06:28N 40°44' W 073°57'1 0.6
2014-Sep-24 05:32N 40°44' W 073°57'4 3.7
2014-Sep-24 04:34N 40°42' W 074°00'3 3.2
2014-Sep-24 03:34N 40°41' W 074°05'5 5.0
2014-Sep-24 02:33N 40°43' W 073°58'2 1.7
2014-Sep-24 01:31N 40°44' W 073°57'5 5.7
2014-Sep-24 00:34N 40°41' W 074°02'2 2.1
2014-Sep-23 23:34N 40°41' W 074°05'0 0.0
2014-Sep-23 22:33N 40°41' W 074°05'0 0.0
2014-Sep-23 21:34N 40°41' W 074°05'0 0.0
2014-Sep-23 20:34N 40°41' W 074°05'0 0.0
2014-Sep-23 19:34N 40°41' W 074°05'0 0.0
2014-Sep-23 18:34N 40°41' W 074°05'0 0.0
2014-Sep-23 17:33N 40°41' W 074°05'1 1.5
2014-Sep-23 16:34N 40°40' W 074°04'4 3.2
2014-Sep-23 15:26N 40°41' W 074°09'0 0.2
2014-Sep-23 14:33N 40°41' W 074°08'2 1.7
2014-Sep-23 13:33N 40°39' W 074°09'3 2.9
2014-Sep-23 12:34N 40°39' W 074°05'2 2.0
2014-Sep-23 11:33N 40°41' W 074°05'0 0.1
2014-Sep-23 10:34N 40°41' W 074°05'0 0.0
2014-Sep-23 09:33N 40°41' W 074°05'0 0.0
2014-Sep-23 08:33N 40°41' W 074°05'0 0.0
2014-Sep-23 07:34N 40°41' W 074°05'0 0.0
2014-Sep-23 06:34N 40°41' W 074°05'0 0.0
2014-Sep-23 05:32N 40°41' W 074°05'0 0.1
2014-Sep-23 04:31N 40°41' W 074°05'2 1.7
2014-Sep-23 03:34N 40°41' W 074°02'5 5.2
2014-Sep-23 02:32N 40°44' W 073°57'2 2.5
2014-Sep-23 01:34N 40°42' W 073°59'5 4.4
2014-Sep-23 00:32N 40°41' W 074°05'2 2.4
2014-Sep-22 23:33N 40°42' W 074°02'3 2.8
2014-Sep-22 22:34N 40°43' W 073°58'2 1.7
2014-Sep-22 21:33N 40°44' W 073°57'6 6.4
2014-Sep-22 20:33N 40°41' W 074°04'1 0.8
2014-Sep-22 19:34N 40°41' W 074°05'0 0.0
2014-Sep-22 18:34N 40°41' W 074°05'0 0.0
2014-Sep-22 17:34N 40°41' W 074°05'0 0.0
2014-Sep-22 16:34N 40°41' W 074°05'0 0.0
2014-Sep-22 15:33N 40°41' W 074°05'0 0.1
2014-Sep-22 14:33N 40°41' W 074°05'3 0.9
2014-Sep-22 11:26N 40°39' W 074°07'3 2.8
2014-Sep-22 10:29N 40°41' W 074°05'0 0.0
2014-Sep-22 09:26N 40°41' W 074°05'0 0.0
2014-Sep-22 08:32N 40°41' W 074°05'0 0.0
2014-Sep-22 07:23N 40°41' W 074°05'0 0.0
2014-Sep-22 06:19N 40°41' W 074°05'0 0.0
2014-Sep-22 04:31N 40°41' W 074°05'0 0.0
2014-Sep-22 03:33N 40°41' W 074°05'1 1.1
2014-Sep-22 02:34N 40°40' W 074°04'5 5.3
2014-Sep-22 01:34N 40°44' W 073°58'4 4.0
2014-Sep-22 00:29N 40°47' W 073°55'4 3.8
2014-Sep-21 23:31N 40°48' W 073°50'6 1.2
2014-Sep-21 18:29N 40°52' W 073°44'5 5.0
2014-Sep-21 17:23N 40°55' W 073°38'6 5.0
2014-Sep-21 16:12N 40°60' W 073°33'3 1.2
2014-Sep-21 13:33N 41°03' W 073°32'  
Track history (hours):
 
Tides and Currents Weather Stations Pressure Air Temp Water Temp Dewpoint Dewpoint Depression Visibility Wind Speed Wind Dir Waves Ship Positions

Cheyenne

Owner: DMC MARINE, LLC, HILLSIDE, NJ. More information available from US FCC via Universal Licensing System and Coast Guard Vessel Documentation Center.

Last reported at 2014-Sep-29 16:33 UTC. Time now 2014-Oct-01 04:00 UTC.
Position N 40°56' W 073°55'.

Length 29 m; draft 4 m.

Type: Towing. MMSI: 367418570.

Date/timePositionNaut miles runAvg speedWind from/ knotsBaromVisibWave heightAir tempDewpointWater temp
2014-Sep-29 16:33N 40°56' W 073°55'8 7.9
2014-Sep-29 15:33N 40°49' W 073°58'7 7.4
2014-Sep-29 14:33N 40°42' W 074°02'2 2.3
2014-Sep-29 13:33N 40°41' W 074°05'0 0.0
2014-Sep-29 12:33N 40°41' W 074°05'0 0.0
2014-Sep-29 11:33N 40°41' W 074°05'0 0.0
2014-Sep-29 10:31N 40°41' W 074°05'0 0.0
2014-Sep-29 09:13N 40°41' W 074°05'0 0.0
2014-Sep-29 08:33N 40°41' W 074°05'0 0.0
2014-Sep-29 07:33N 40°41' W 074°05'0 0.0
2014-Sep-29 06:33N 40°41' W 074°05'0 0.0
2014-Sep-29 05:33N 40°41' W 074°05'0 0.0
2014-Sep-29 04:33N 40°41' W 074°05'0 0.0
2014-Sep-29 03:33N 40°41' W 074°05'0 0.0
2014-Sep-29 02:30N 40°41' W 074°05'0 0.0
2014-Sep-29 01:33N 40°41' W 074°05'0 0.0
2014-Sep-29 00:33N 40°41' W 074°05'1 1.3
2014-Sep-28 23:32N 40°41' W 074°03'0 0.0
2014-Sep-28 22:31N 40°41' W 074°03'4 4.6
2014-Sep-28 21:32N 40°39' W 074°08'2 1.9
2014-Sep-28 20:31N 40°41' W 074°08'10 2.6
2014-Sep-28 16:33N 40°30' W 074°10'5 5.5
2014-Sep-28 15:32N 40°32' W 074°03'5 4.6
2014-Sep-28 14:33N 40°36' W 074°03'4 4.3
2014-Sep-28 13:33N 40°41' W 074°03'1 1.0
2014-Sep-28 12:33N 40°41' W 074°04'0 0.4
2014-Sep-28 11:33N 40°41' W 074°05'0 0.0
2014-Sep-28 10:33N 40°41' W 074°05'0 0.0
2014-Sep-28 09:33N 40°41' W 074°05'0 0.0
2014-Sep-28 08:33N 40°41' W 074°05'0 0.0
2014-Sep-28 07:33N 40°41' W 074°05'0 0.0
2014-Sep-28 06:33N 40°41' W 074°05'0 0.0
2014-Sep-28 05:33N 40°41' W 074°05'0 0.0
2014-Sep-28 04:33N 40°41' W 074°05'0 0.0
2014-Sep-28 03:33N 40°41' W 074°05'0 0.0
2014-Sep-28 02:33N 40°41' W 074°05'0 0.0
2014-Sep-28 01:32N 40°41' W 074°05'1 1.2
2014-Sep-28 00:33N 40°40' W 074°04'4 3.9
2014-Sep-27 23:30N 40°39' W 074°09'2 1.6
2014-Sep-27 22:30N 40°41' W 074°08'3 2.8
2014-Sep-27 21:31N 40°39' W 074°05'7 1.4
2014-Sep-27 16:33N 40°43' W 073°58'5 2.3
2014-Sep-27 14:19N 40°41' W 074°04'0 0.0
2014-Sep-27 07:31N 40°41' W 074°05'0 0.0
2014-Sep-27 06:19N 40°41' W 074°05'0 0.0
2014-Sep-27 04:27N 40°41' W 074°05'0 0.0
2014-Sep-27 03:33N 40°41' W 074°05'0 0.0
2014-Sep-27 00:24N 40°41' W 074°05'0 0.0
2014-Sep-26 23:33N 40°41' W 074°05'1 0.9
2014-Sep-26 22:33N 40°41' W 074°04'5 5.0
2014-Sep-26 21:31N 40°44' W 073°58'1 1.0
2014-Sep-26 20:17N 40°44' W 073°57'2 2.2
2014-Sep-26 19:33N 40°43' W 073°58'3 3.0
2014-Sep-26 18:33N 40°41' W 074°02'2 2.4
2014-Sep-26 17:33N 40°41' W 074°05'0 0.0
2014-Sep-26 16:32N 40°41' W 074°05'0 0.0
2014-Sep-26 15:27N 40°41' W 074°05'0 0.0
2014-Sep-26 14:29N 40°41' W 074°05'0 0.0
2014-Sep-26 13:33N 40°41' W 074°05'0 0.0
2014-Sep-25 15:28N 40°41' W 074°05'0 0.0
2014-Sep-25 12:24N 40°41' W 074°05'0 0.0
2014-Sep-25 11:33N 40°41' W 074°05'0 0.0
2014-Sep-25 10:33N 40°41' W 074°05'0 0.0
2014-Sep-25 08:31N 40°41' W 074°05'0 0.0
2014-Sep-25 07:27N 40°41' W 074°05'0 0.0
2014-Sep-24 18:33N 40°41' W 074°05'0 0.0
2014-Sep-24 17:32N 40°41' W 074°05'0 0.0
2014-Sep-24 15:28N 40°41' W 074°05'0 0.0
2014-Sep-24 13:33N 40°41' W 074°05'0 0.0
2014-Sep-24 12:33N 40°41' W 074°05'0 0.0
2014-Sep-24 11:33N 40°41' W 074°05'0 0.0
2014-Sep-24 10:34N 40°41' W 074°05'0 0.0
2014-Sep-24 09:30N 40°41' W 074°05'0 0.0
2014-Sep-24 08:32N 40°41' W 074°05'1 1.5
2014-Sep-24 07:34N 40°41' W 074°03'6 5.3
2014-Sep-24 06:28N 40°44' W 073°57'1 0.6
2014-Sep-24 05:32N 40°44' W 073°57'4 3.7
2014-Sep-24 04:34N 40°42' W 074°00'3 3.2
2014-Sep-24 03:34N 40°41' W 074°05'5 5.0
2014-Sep-24 02:33N 40°43' W 073°58'2 1.7
2014-Sep-24 01:31N 40°44' W 073°57'5 5.7
2014-Sep-24 00:34N 40°41' W 074°02'2 2.1
2014-Sep-23 23:34N 40°41' W 074°05'0 0.0
2014-Sep-23 22:33N 40°41' W 074°05'0 0.0
2014-Sep-23 21:34N 40°41' W 074°05'0 0.0
2014-Sep-23 20:34N 40°41' W 074°05'0 0.0
2014-Sep-23 19:34N 40°41' W 074°05'0 0.0
2014-Sep-23 18:34N 40°41' W 074°05'0 0.0
2014-Sep-23 17:33N 40°41' W 074°05'1 1.5
2014-Sep-23 16:34N 40°40' W 074°04'4 3.2
2014-Sep-23 15:26N 40°41' W 074°09'0 0.2
2014-Sep-23 14:33N 40°41' W 074°08'2 1.7
2014-Sep-23 13:33N 40°39' W 074°09'3 2.9
2014-Sep-23 12:34N 40°39' W 074°05'2 2.0
2014-Sep-23 11:33N 40°41' W 074°05'0 0.1
2014-Sep-23 10:34N 40°41' W 074°05'0 0.0
2014-Sep-23 09:33N 40°41' W 074°05'0 0.0
2014-Sep-23 08:33N 40°41' W 074°05'0 0.0
2014-Sep-23 07:34N 40°41' W 074°05'0 0.0
2014-Sep-23 06:34N 40°41' W 074°05'0 0.0
2014-Sep-23 05:32N 40°41' W 074°05'0 0.1
2014-Sep-23 04:31N 40°41' W 074°05'2 1.7
2014-Sep-23 03:34N 40°41' W 074°02'5 5.2
2014-Sep-23 02:32N 40°44' W 073°57'2 2.5
2014-Sep-23 01:34N 40°42' W 073°59'5 4.4
2014-Sep-23 00:32N 40°41' W 074°05'2 2.4
2014-Sep-22 23:33N 40°42' W 074°02'3 2.8
2014-Sep-22 22:34N 40°43' W 073°58'2 1.7
2014-Sep-22 21:33N 40°44' W 073°57'6 6.4
2014-Sep-22 20:33N 40°41' W 074°04'1 0.8
2014-Sep-22 19:34N 40°41' W 074°05'0 0.0
2014-Sep-22 18:34N 40°41' W 074°05'0 0.0
2014-Sep-22 17:34N 40°41' W 074°05'0 0.0
2014-Sep-22 16:34N 40°41' W 074°05'0 0.0
2014-Sep-22 15:33N 40°41' W 074°05'0 0.1
2014-Sep-22 14:33N 40°41' W 074°05'3 0.9
2014-Sep-22 11:26N 40°39' W 074°07'3 2.8
2014-Sep-22 10:29N 40°41' W 074°05'0 0.0
2014-Sep-22 09:26N 40°41' W 074°05'0 0.0
2014-Sep-22 08:32N 40°41' W 074°05'0 0.0
2014-Sep-22 07:23N 40°41' W 074°05'0 0.0
2014-Sep-22 06:19N 40°41' W 074°05'0 0.0
2014-Sep-22 04:31N 40°41' W 074°05'0 0.0
2014-Sep-22 03:33N 40°41' W 074°05'1 1.1
2014-Sep-22 02:34N 40°40' W 074°04'5 5.3
2014-Sep-22 01:34N 40°44' W 073°58'4 4.0
2014-Sep-22 00:29N 40°47' W 073°55'4 3.8
2014-Sep-21 23:31N 40°48' W 073°50'6 1.2
2014-Sep-21 18:29N 40°52' W 073°44'5 5.0
2014-Sep-21 17:23N 40°55' W 073°38'6 5.0
2014-Sep-21 16:12N 40°60' W 073°33'3 1.2
2014-Sep-21 13:33N 41°03' W 073°32'  

Dump ship's entire track history